createdAt,value
2016-10-25T00:00:39.279Z,0
2016-10-25T00:01:39.264Z,0
2016-10-25T00:02:39.259Z,0
2016-10-25T00:03:39.242Z,0
2016-10-25T00:04:39.250Z,0
2016-10-25T00:05:39.221Z,0
2016-10-25T00:06:39.203Z,0
2016-10-25T00:07:39.216Z,0
2016-10-25T00:08:39.167Z,0
2016-10-25T00:09:39.172Z,0
2016-10-25T00:10:39.447Z,0
2016-10-25T00:11:39.144Z,0
2016-10-25T00:12:39.158Z,0
2016-10-25T00:13:39.267Z,0
2016-10-25T00:14:39.109Z,0
2016-10-25T00:15:39.084Z,0
2016-10-25T00:16:39.100Z,0
2016-10-25T00:17:39.121Z,0
2016-10-25T00:18:39.067Z,0
2016-10-25T00:19:39.057Z,0
2016-10-25T00:20:39.034Z,0
2016-10-25T00:21:39.015Z,0
2016-10-25T00:22:39.034Z,0
2016-10-25T00:23:39.028Z,0
2016-10-25T00:24:39.012Z,0
2016-10-25T00:25:39.009Z,0
2016-10-25T00:26:38.963Z,0
2016-10-25T00:27:38.944Z,0
2016-10-25T00:28:38.944Z,0
2016-10-25T00:29:38.947Z,0
2016-10-25T00:30:38.929Z,0
2016-10-25T00:31:38.936Z,0
2016-10-25T00:32:38.928Z,0
2016-10-25T00:33:38.900Z,0
2016-10-25T00:34:38.889Z,0
2016-10-25T00:35:38.866Z,0
2016-10-25T00:36:38.873Z,0
2016-10-25T00:37:38.841Z,0
2016-10-25T00:38:38.835Z,0
2016-10-25T00:39:38.859Z,0
2016-10-25T00:40:38.804Z,0
2016-10-25T00:41:38.818Z,0
2016-10-25T00:42:38.773Z,0
2016-10-25T00:43:38.789Z,0
2016-10-25T00:44:38.778Z,0
2016-10-25T00:45:38.752Z,0
2016-10-25T00:46:38.750Z,0
2016-10-25T00:47:38.730Z,0
2016-10-25T00:48:38.715Z,0
2016-10-25T00:49:38.709Z,0
2016-10-25T00:50:38.691Z,0
2016-10-25T00:51:38.687Z,0
2016-10-25T00:52:38.659Z,0
2016-10-25T00:53:38.673Z,0
2016-10-25T00:54:38.679Z,0
2016-10-25T00:55:38.632Z,0
2016-10-25T00:56:38.612Z,0
2016-10-25T00:57:38.629Z,0
2016-10-25T00:58:38.646Z,0
2016-10-25T00:59:38.624Z,0
2016-10-25T01:00:38.592Z,0
2016-10-25T01:01:38.582Z,0
2016-10-25T01:02:38.562Z,0
2016-10-25T01:03:38.523Z,0
2016-10-25T01:04:38.542Z,0
2016-10-25T01:05:38.555Z,0
2016-10-25T01:06:38.493Z,0
2016-10-25T01:07:38.487Z,0
2016-10-25T01:08:38.460Z,0
2016-10-25T01:09:38.497Z,0
2016-10-25T01:10:38.479Z,0
2016-10-25T01:11:38.490Z,0
2016-10-25T01:12:38.432Z,0
2016-10-25T01:13:38.441Z,0
2016-10-25T01:14:38.406Z,0
2016-10-25T01:15:38.395Z,0
2016-10-25T01:16:38.393Z,0
2016-10-25T01:17:38.399Z,0
2016-10-25T01:18:38.377Z,0
2016-10-25T01:19:38.571Z,0
2016-10-25T01:20:38.340Z,0
2016-10-25T01:21:38.308Z,0
2016-10-25T01:22:38.299Z,0
2016-10-25T01:23:38.308Z,0
2016-10-25T01:24:38.323Z,0
2016-10-25T01:25:38.273Z,0
2016-10-25T01:26:38.258Z,0
2016-10-25T01:27:38.251Z,0
2016-10-25T01:28:38.244Z,0
2016-10-25T01:29:38.238Z,0
2016-10-25T01:30:38.217Z,0
2016-10-25T01:31:38.533Z,0
2016-10-25T01:32:38.247Z,0
2016-10-25T01:33:38.214Z,0
2016-10-25T01:34:38.197Z,0
2016-10-25T01:35:38.178Z,0
2016-10-25T01:36:38.154Z,0
2016-10-25T01:37:38.164Z,0
2016-10-25T01:38:38.130Z,0
2016-10-25T01:39:38.106Z,0
2016-10-25T01:40:38.127Z,0
2016-10-25T01:41:38.116Z,0
2016-10-25T01:42:38.074Z,0
2016-10-25T01:43:38.078Z,0
2016-10-25T01:44:38.079Z,0
2016-10-25T01:45:38.056Z,0
2016-10-25T01:46:38.062Z,0
2016-10-25T01:47:38.017Z,0
2016-10-25T01:48:38.010Z,0
2016-10-25T01:49:37.987Z,0
2016-10-25T01:50:38.000Z,0
2016-10-25T01:51:37.984Z,0
2016-10-25T01:52:37.977Z,0
2016-10-25T01:53:37.973Z,0
2016-10-25T01:54:37.974Z,0
2016-10-25T01:55:37.956Z,0
2016-10-25T01:56:37.914Z,0
2016-10-25T01:57:37.895Z,0
2016-10-25T01:58:37.900Z,0
2016-10-25T01:59:37.922Z,0
2016-10-25T02:00:38.038Z,0
2016-10-25T02:01:37.865Z,0
2016-10-25T02:02:37.880Z,0
2016-10-25T02:03:37.845Z,0
2016-10-25T02:04:37.822Z,0
2016-10-25T02:05:37.820Z,0
2016-10-25T02:06:37.825Z,0
2016-10-25T02:07:37.814Z,0
2016-10-25T02:08:37.770Z,0
2016-10-25T02:09:37.751Z,0
2016-10-25T02:10:37.885Z,0
2016-10-25T02:11:37.726Z,0
2016-10-25T02:12:37.765Z,0
2016-10-25T02:13:37.740Z,0
2016-10-25T02:14:37.734Z,0
2016-10-25T02:15:37.713Z,0
2016-10-25T02:16:37.708Z,0
2016-10-25T02:17:37.711Z,0
2016-10-25T02:18:37.682Z,0
2016-10-25T02:19:37.645Z,0
2016-10-25T02:20:37.754Z,0
2016-10-25T02:21:37.654Z,0
2016-10-25T02:22:37.642Z,0
2016-10-25T02:23:37.639Z,0
2016-10-25T02:24:37.582Z,0
2016-10-25T02:25:37.591Z,0
2016-10-25T02:26:37.548Z,0
2016-10-25T02:27:37.611Z,0
2016-10-25T02:28:37.546Z,0
2016-10-25T02:29:37.538Z,0
2016-10-25T02:30:37.529Z,0
2016-10-25T02:31:37.525Z,0
2016-10-25T02:32:37.527Z,0
2016-10-25T02:33:37.808Z,0
2016-10-25T02:34:37.502Z,0
2016-10-25T02:35:37.487Z,0
2016-10-25T02:36:37.465Z,0
2016-10-25T02:37:37.459Z,0
2016-10-25T02:38:37.419Z,0
2016-10-25T02:39:37.455Z,0
2016-10-25T02:40:37.429Z,0
2016-10-25T02:41:37.410Z,0
2016-10-25T02:42:37.449Z,0
2016-10-25T02:43:37.389Z,0
2016-10-25T02:44:37.390Z,0
2016-10-25T02:45:37.405Z,0
2016-10-25T02:46:37.333Z,0
2016-10-25T02:47:37.343Z,0
2016-10-25T02:48:37.333Z,0
2016-10-25T02:49:37.311Z,0
2016-10-25T02:50:37.304Z,0
2016-10-25T02:51:37.310Z,0
2016-10-25T02:52:37.305Z,0
2016-10-25T02:53:37.262Z,0
2016-10-25T02:54:37.257Z,0
2016-10-25T02:55:37.271Z,0
2016-10-25T02:56:37.248Z,0
2016-10-25T02:57:37.206Z,0
2016-10-25T02:58:37.210Z,0
2016-10-25T02:59:37.213Z,0
2016-10-25T03:00:37.225Z,0
2016-10-25T03:01:37.184Z,0
2016-10-25T03:02:37.165Z,0
2016-10-25T03:03:37.134Z,0
2016-10-25T03:04:37.127Z,0
2016-10-25T03:05:37.132Z,0
2016-10-25T03:06:37.140Z,0
2016-10-25T03:07:37.153Z,0
2016-10-25T03:08:37.115Z,0
2016-10-25T03:09:37.099Z,0
2016-10-25T03:10:37.105Z,0
2016-10-25T03:11:37.217Z,0
2016-10-25T03:12:37.057Z,0
2016-10-25T03:13:37.049Z,0
2016-10-25T03:14:37.358Z,0
2016-10-25T03:15:37.024Z,0
2016-10-25T03:16:37.019Z,0
2016-10-25T03:17:36.990Z,0
2016-10-25T03:18:36.981Z,0
2016-10-25T03:19:36.972Z,0
2016-10-25T03:20:36.980Z,0
2016-10-25T03:21:36.967Z,0
2016-10-25T03:22:36.929Z,0
2016-10-25T03:23:36.909Z,0
2016-10-25T03:24:36.930Z,0
2016-10-25T03:25:36.895Z,0
2016-10-25T03:26:36.878Z,0
2016-10-25T03:27:36.940Z,0
2016-10-25T03:28:36.872Z,0
2016-10-25T03:29:36.867Z,0
2016-10-25T03:30:36.852Z,0
2016-10-25T03:31:36.849Z,0
2016-10-25T03:32:36.839Z,0
2016-10-25T03:33:36.827Z,0
2016-10-25T03:34:36.821Z,0
2016-10-25T03:35:36.807Z,0
2016-10-25T03:36:36.813Z,0
2016-10-25T03:37:36.805Z,0
2016-10-25T03:38:36.761Z,0
2016-10-25T03:39:36.759Z,0
2016-10-25T03:40:36.718Z,0
2016-10-25T03:41:36.728Z,0
2016-10-25T03:42:37.035Z,0
2016-10-25T03:43:36.721Z,0
2016-10-25T03:44:36.708Z,0
2016-10-25T03:45:36.719Z,0
2016-10-25T03:46:36.693Z,0
2016-10-25T03:47:36.662Z,0
2016-10-25T03:48:36.650Z,0
2016-10-25T03:49:36.661Z,0
2016-10-25T03:50:36.607Z,0
2016-10-25T03:51:36.602Z,0
2016-10-25T03:52:36.634Z,0
2016-10-25T03:53:36.593Z,0
2016-10-25T03:54:36.570Z,0
2016-10-25T03:55:36.578Z,0
2016-10-25T03:56:36.545Z,0
2016-10-25T03:57:36.517Z,0
2016-10-25T03:58:36.542Z,0
2016-10-25T03:59:36.502Z,0
2016-10-25T04:00:36.490Z,0
2016-10-25T04:01:36.477Z,0
2016-10-25T04:02:36.621Z,0
2016-10-25T04:03:36.456Z,0
2016-10-25T04:04:36.455Z,0
2016-10-25T04:05:36.429Z,0
2016-10-25T04:06:36.442Z,0
2016-10-25T04:07:36.409Z,0
2016-10-25T04:08:36.405Z,0
2016-10-25T04:09:36.411Z,0
2016-10-25T04:10:36.381Z,0
2016-10-25T04:11:36.348Z,0
2016-10-25T04:12:36.382Z,0
2016-10-25T04:13:36.378Z,0
2016-10-25T04:14:36.341Z,0
2016-10-25T04:15:36.339Z,0
2016-10-25T04:16:36.368Z,0
2016-10-25T04:17:36.290Z,0
2016-10-25T04:18:36.260Z,0
2016-10-25T04:19:36.299Z,0
2016-10-25T04:20:36.287Z,0
2016-10-25T04:21:36.260Z,0
2016-10-25T04:22:36.226Z,0
2016-10-25T04:23:36.237Z,0
2016-10-25T04:24:36.228Z,0
2016-10-25T04:25:36.208Z,0
2016-10-25T04:26:36.174Z,0
2016-10-25T04:27:36.185Z,0
2016-10-25T04:28:36.167Z,0
2016-10-25T04:29:36.157Z,0
2016-10-25T04:30:36.175Z,0
2016-10-25T04:31:36.147Z,0
2016-10-25T04:32:36.123Z,0
2016-10-25T04:33:36.424Z,0
2016-10-25T04:34:36.115Z,0
2016-10-25T04:35:36.103Z,0
2016-10-25T04:36:36.091Z,0
2016-10-25T04:37:36.062Z,0
2016-10-25T04:38:36.023Z,0
2016-10-25T04:39:36.022Z,0
2016-10-25T04:40:36.011Z,0
2016-10-25T04:41:36.009Z,0
2016-10-25T04:42:36.005Z,0
2016-10-25T04:43:35.995Z,0
2016-10-25T04:44:35.953Z,0
2016-10-25T04:45:35.968Z,0
2016-10-25T04:46:35.954Z,0
2016-10-25T04:47:35.931Z,0
2016-10-25T04:48:35.913Z,0
2016-10-25T04:49:35.914Z,0
2016-10-25T04:50:35.877Z,0
2016-10-25T04:51:35.899Z,0
2016-10-25T04:52:35.899Z,0
2016-10-25T04:53:35.883Z,0
2016-10-25T04:54:35.865Z,0
2016-10-25T04:55:35.851Z,0
2016-10-25T04:56:35.839Z,0
2016-10-25T04:57:35.819Z,0
2016-10-25T04:58:35.801Z,0
2016-10-25T04:59:35.804Z,0
2016-10-25T05:00:35.809Z,0
2016-10-25T05:01:35.775Z,0
2016-10-25T05:02:35.779Z,0
2016-10-25T05:03:36.225Z,0
2016-10-25T05:04:35.721Z,0
2016-10-25T05:05:35.746Z,0
2016-10-25T05:06:35.761Z,0
2016-10-25T05:07:35.724Z,0
2016-10-25T05:08:35.764Z,0
2016-10-25T05:09:35.683Z,0
2016-10-25T05:10:35.661Z,0
2016-10-25T05:11:35.669Z,0
2016-10-25T05:12:35.678Z,0
2016-10-25T05:13:35.615Z,0
2016-10-25T05:14:35.643Z,0
2016-10-25T05:15:35.627Z,0
2016-10-25T05:16:35.607Z,0
2016-10-25T05:17:35.589Z,0
2016-10-25T05:18:35.592Z,0
2016-10-25T05:19:35.589Z,0
2016-10-25T05:20:35.558Z,0
2016-10-25T05:21:35.563Z,0
2016-10-25T05:22:35.573Z,0
2016-10-25T05:23:35.503Z,0
2016-10-25T05:24:35.495Z,0
2016-10-25T05:25:35.535Z,0
2016-10-25T05:26:35.489Z,0
2016-10-25T05:27:35.461Z,0
2016-10-25T05:28:35.458Z,0
2016-10-25T05:29:35.464Z,0
2016-10-25T05:30:35.441Z,0
2016-10-25T05:31:35.438Z,0
2016-10-25T05:32:35.425Z,0
2016-10-25T05:33:35.409Z,0
2016-10-25T05:34:35.380Z,0
2016-10-25T05:35:35.361Z,0
2016-10-25T05:36:35.386Z,0
2016-10-25T05:37:35.352Z,0
2016-10-25T05:38:35.361Z,0
2016-10-25T05:39:35.347Z,0
2016-10-25T05:40:35.325Z,0
2016-10-25T05:41:35.329Z,0
2016-10-25T05:42:35.305Z,0
2016-10-25T05:43:35.271Z,0
2016-10-25T05:44:35.253Z,0
2016-10-25T05:45:35.255Z,5
2016-10-25T05:46:35.249Z,5
2016-10-25T05:47:35.270Z,5
2016-10-25T05:48:35.246Z,0
2016-10-25T05:49:35.226Z,0
2016-10-25T05:50:35.188Z,5
2016-10-25T05:51:35.182Z,0
2016-10-25T05:52:35.197Z,0
2016-10-25T05:53:35.200Z,0
2016-10-25T05:54:35.136Z,0
2016-10-25T05:55:35.121Z,0
2016-10-25T05:56:35.121Z,0
2016-10-25T05:57:35.101Z,5
2016-10-25T05:58:35.104Z,5
2016-10-25T05:59:35.081Z,5
2016-10-25T06:00:35.055Z,5
2016-10-25T06:01:35.678Z,5
2016-10-25T06:02:35.029Z,5
2016-10-25T06:03:35.055Z,10
2016-10-25T06:04:35.022Z,10
2016-10-25T06:05:35.006Z,10
2016-10-25T06:06:34.985Z,10
2016-10-25T06:07:34.968Z,15
2016-10-25T06:08:34.951Z,15
2016-10-25T06:09:34.940Z,25
2016-10-25T06:10:34.938Z,35
2016-10-25T06:11:34.945Z,50
2016-10-25T06:12:34.926Z,60
2016-10-25T06:13:34.913Z,60
2016-10-25T06:14:34.891Z,65
2016-10-25T06:15:34.882Z,70
2016-10-25T06:16:34.840Z,75
2016-10-25T06:17:34.855Z,85
2016-10-25T06:18:34.894Z,80
2016-10-25T06:19:34.876Z,70
2016-10-25T06:20:34.854Z,60
2016-10-25T06:21:34.821Z,55
2016-10-25T06:22:34.756Z,55
2016-10-25T06:23:34.784Z,70
2016-10-25T06:24:34.752Z,80
2016-10-25T06:25:34.740Z,85
2016-10-25T06:26:34.745Z,85
2016-10-25T06:27:34.748Z,85
2016-10-25T06:28:34.699Z,85
2016-10-25T06:29:34.705Z,85
2016-10-25T06:30:34.718Z,95
2016-10-25T06:31:34.684Z,110
2016-10-25T06:32:34.682Z,115
2016-10-25T06:33:34.940Z,120
2016-10-25T06:34:34.641Z,135
2016-10-25T06:35:34.605Z,115
2016-10-25T06:36:34.606Z,125
2016-10-25T06:37:34.605Z,140
2016-10-25T06:38:34.583Z,130
2016-10-25T06:39:34.556Z,95
2016-10-25T06:40:34.601Z,85
2016-10-25T06:41:34.530Z,80
2016-10-25T06:42:34.564Z,65
2016-10-25T06:43:34.602Z,55
2016-10-25T06:44:34.509Z,55
2016-10-25T06:45:34.514Z,55
2016-10-25T06:46:34.504Z,50
2016-10-25T06:47:34.798Z,55
2016-10-25T06:48:34.441Z,60
2016-10-25T06:49:34.459Z,70
2016-10-25T06:50:34.457Z,75
2016-10-25T06:51:34.415Z,85
2016-10-25T06:52:34.392Z,95
2016-10-25T06:53:34.424Z,105
2016-10-25T06:54:34.422Z,120
2016-10-25T06:55:34.376Z,145
2016-10-25T06:56:34.367Z,160
2016-10-25T06:57:34.343Z,160
2016-10-25T06:58:34.327Z,170
2016-10-25T06:59:34.312Z,155
2016-10-25T07:00:34.313Z,145
2016-10-25T07:01:34.297Z,145
2016-10-25T07:02:34.318Z,135
2016-10-25T07:03:34.273Z,125
2016-10-25T07:04:34.294Z,110
2016-10-25T07:05:34.263Z,110
2016-10-25T07:06:34.241Z,110
2016-10-25T07:07:34.250Z,110
2016-10-25T07:08:34.202Z,125
2016-10-25T07:09:34.189Z,155
2016-10-25T07:10:34.171Z,150
2016-10-25T07:11:34.149Z,160
2016-10-25T07:12:34.185Z,170
2016-10-25T07:13:34.138Z,185
2016-10-25T07:14:34.150Z,185
2016-10-25T07:15:34.112Z,200
2016-10-25T07:16:34.087Z,220
2016-10-25T07:17:34.067Z,240
2016-10-25T07:18:34.052Z,275
2016-10-25T07:19:34.067Z,320
2016-10-25T07:20:34.050Z,320
2016-10-25T07:21:34.032Z,305
2016-10-25T07:22:34.055Z,300
2016-10-25T07:23:34.026Z,290
2016-10-25T07:24:34.001Z,295
2016-10-25T07:25:33.970Z,300
2016-10-25T07:26:33.963Z,290
2016-10-25T07:27:33.946Z,315
2016-10-25T07:28:33.954Z,310
2016-10-25T07:29:33.935Z,265
2016-10-25T07:30:33.937Z,245
2016-10-25T07:31:33.923Z,225
2016-10-25T07:32:34.197Z,210
2016-10-25T07:33:33.910Z,215
2016-10-25T07:34:33.859Z,220
2016-10-25T07:35:33.869Z,240
2016-10-25T07:36:33.844Z,255
2016-10-25T07:37:33.851Z,255
2016-10-25T07:38:33.819Z,260
2016-10-25T07:39:33.810Z,265
2016-10-25T07:40:33.783Z,255
2016-10-25T07:41:33.799Z,245
2016-10-25T07:42:33.770Z,235
2016-10-25T07:43:33.765Z,225
2016-10-25T07:44:33.747Z,265
2016-10-25T07:45:33.726Z,290
2016-10-25T07:46:33.730Z,300
2016-10-25T07:47:33.716Z,315
2016-10-25T07:48:33.679Z,335
2016-10-25T07:49:33.682Z,335
2016-10-25T07:50:33.671Z,320
2016-10-25T07:51:33.652Z,350
2016-10-25T07:52:33.647Z,315
2016-10-25T07:53:33.613Z,285
2016-10-25T07:54:33.614Z,280
2016-10-25T07:55:33.600Z,265
2016-10-25T07:56:33.614Z,265
2016-10-25T07:57:33.550Z,265
2016-10-25T07:58:33.553Z,240
2016-10-25T07:59:33.594Z,255
2016-10-25T08:00:33.546Z,310
2016-10-25T08:01:33.503Z,350
2016-10-25T08:02:33.496Z,310
2016-10-25T08:03:33.511Z,290
2016-10-25T08:04:33.483Z,320
2016-10-25T08:05:33.535Z,330
2016-10-25T08:06:33.463Z,305
2016-10-25T08:07:33.432Z,325
2016-10-25T08:08:33.440Z,335
2016-10-25T08:09:33.429Z,370
2016-10-25T08:10:33.377Z,500
2016-10-25T08:11:33.401Z,605
2016-10-25T08:12:33.386Z,655
2016-10-25T08:13:33.398Z,650
2016-10-25T08:14:33.368Z,665
2016-10-25T08:15:33.340Z,765
2016-10-25T08:16:33.316Z,795
2016-10-25T08:17:33.335Z,775
2016-10-25T08:18:33.321Z,670
2016-10-25T08:19:33.307Z,620
2016-10-25T08:20:33.274Z,680
2016-10-25T08:21:33.260Z,850
2016-10-25T08:22:33.272Z,905
2016-10-25T08:23:33.211Z,1000
2016-10-25T08:24:33.235Z,1005
2016-10-25T08:25:33.219Z,995
2016-10-25T08:26:33.226Z,1000
2016-10-25T08:27:33.389Z,935
2016-10-25T08:28:33.187Z,800
2016-10-25T08:29:33.158Z,980
2016-10-25T08:30:33.153Z,965
2016-10-25T08:31:33.159Z,775
2016-10-25T08:32:33.139Z,895
2016-10-25T08:33:33.140Z,945
2016-10-25T08:34:33.109Z,895
2016-10-25T08:35:33.142Z,1000
2016-10-25T08:36:33.094Z,830
2016-10-25T08:37:33.116Z,935
2016-10-25T08:38:33.088Z,1135
2016-10-25T08:39:33.067Z,1025
2016-10-25T08:40:33.045Z,905
2016-10-25T08:41:33.067Z,860
2016-10-25T08:42:33.058Z,995
2016-10-25T08:43:33.081Z,990
2016-10-25T08:44:32.997Z,1000
2016-10-25T08:45:32.987Z,960
2016-10-25T08:46:32.970Z,950
2016-10-25T08:47:32.932Z,1120
2016-10-25T08:48:32.935Z,1355
2016-10-25T08:49:32.935Z,1450
2016-10-25T08:50:32.939Z,1485
2016-10-25T08:51:32.909Z,1425
2016-10-25T08:52:32.878Z,1470
2016-10-25T08:53:32.904Z,1310
2016-10-25T08:54:32.891Z,1340
2016-10-25T08:55:32.840Z,1470
2016-10-25T08:56:32.863Z,1370
2016-10-25T08:57:32.835Z,1585
2016-10-25T08:58:32.829Z,1755
2016-10-25T08:59:32.805Z,1370
2016-10-25T09:00:33.114Z,1330
2016-10-25T09:01:32.794Z,1425
2016-10-25T09:02:32.790Z,1435
2016-10-25T09:03:32.738Z,1460
2016-10-25T09:04:32.751Z,1405
2016-10-25T09:05:32.729Z,1370
2016-10-25T09:06:32.726Z,1240
2016-10-25T09:07:32.736Z,1315
2016-10-25T09:08:32.721Z,1155
2016-10-25T09:09:32.730Z,1185
2016-10-25T09:10:32.695Z,1170
2016-10-25T09:11:32.946Z,1120
2016-10-25T09:12:32.865Z,1120
2016-10-25T09:13:32.636Z,1115
2016-10-25T09:14:32.836Z,1105
2016-10-25T09:15:32.839Z,1020
2016-10-25T09:16:32.608Z,955
2016-10-25T09:17:32.629Z,950
2016-10-25T09:18:32.601Z,895
2016-10-25T09:19:32.585Z,800
2016-10-25T09:20:32.567Z,770
2016-10-25T09:21:32.570Z,750
2016-10-25T09:22:32.567Z,710
2016-10-25T09:23:32.536Z,715
2016-10-25T09:24:32.543Z,680
2016-10-25T09:25:32.837Z,685
2016-10-25T09:26:32.517Z,705
2016-10-25T09:27:32.510Z,715
2016-10-25T09:28:32.453Z,665
2016-10-25T09:29:32.464Z,645
2016-10-25T09:30:32.488Z,595
2016-10-25T09:31:32.452Z,630
2016-10-25T09:32:32.442Z,600
2016-10-25T09:33:32.539Z,560
2016-10-25T09:34:32.416Z,555
2016-10-25T09:35:32.409Z,595
2016-10-25T09:36:32.392Z,610
2016-10-25T09:37:32.356Z,595
2016-10-25T09:38:32.333Z,755
2016-10-25T09:39:32.348Z,850
2016-10-25T09:40:32.330Z,720
2016-10-25T09:41:32.337Z,705
2016-10-25T09:42:32.305Z,770
2016-10-25T09:43:32.517Z,640
2016-10-25T09:44:32.294Z,625
2016-10-25T09:45:32.259Z,580
2016-10-25T09:46:32.265Z,590
2016-10-25T09:47:32.261Z,760
2016-10-25T09:48:32.236Z,725
2016-10-25T09:49:32.222Z,680
2016-10-25T09:50:32.221Z,665
2016-10-25T09:51:32.224Z,605
2016-10-25T09:52:32.201Z,545
2016-10-25T09:53:32.193Z,550
2016-10-25T09:54:32.241Z,610
2016-10-25T09:55:32.189Z,605
2016-10-25T09:56:32.128Z,565
2016-10-25T09:57:32.114Z,550
2016-10-25T09:58:32.116Z,610
2016-10-25T09:59:32.115Z,550
2016-10-25T10:00:32.076Z,505
2016-10-25T10:01:32.147Z,535
2016-10-25T10:02:32.052Z,500
2016-10-25T10:03:32.054Z,615
2016-10-25T10:04:32.075Z,585
2016-10-25T10:05:32.062Z,535
2016-10-25T10:06:32.021Z,530
2016-10-25T10:07:32.041Z,590
2016-10-25T10:08:32.028Z,640
2016-10-25T10:09:31.983Z,610
2016-10-25T10:10:31.957Z,645
2016-10-25T10:11:31.960Z,570
2016-10-25T10:12:31.972Z,505
2016-10-25T10:13:31.907Z,510
2016-10-25T10:14:31.917Z,580
2016-10-25T10:15:46.803Z,655
2016-10-25T10:16:31.915Z,620
2016-10-25T10:17:32.092Z,565
2016-10-25T10:18:31.881Z,525
2016-10-25T10:19:32.191Z,570
2016-10-25T10:20:31.833Z,605
2016-10-25T10:21:31.829Z,580
2016-10-25T10:22:31.854Z,605
2016-10-25T10:23:31.819Z,650
2016-10-25T10:24:31.800Z,675
2016-10-25T10:25:31.981Z,655
2016-10-25T10:26:31.795Z,685
2016-10-25T10:27:31.794Z,690
2016-10-25T10:28:31.750Z,725
2016-10-25T10:29:31.751Z,800
2016-10-25T10:30:31.723Z,740
2016-10-25T10:31:31.721Z,700
2016-10-25T10:32:31.711Z,660
2016-10-25T10:33:31.711Z,670
2016-10-25T10:34:32.004Z,690
2016-10-25T10:35:31.701Z,670
2016-10-25T10:36:31.659Z,690
2016-10-25T10:37:31.685Z,690
2016-10-25T10:38:31.629Z,715
2016-10-25T10:39:31.642Z,760
2016-10-25T10:40:31.620Z,775
2016-10-25T10:41:31.626Z,775
2016-10-25T10:42:31.603Z,760
2016-10-25T10:43:31.595Z,740
2016-10-25T10:44:31.556Z,730
2016-10-25T10:45:31.584Z,750
2016-10-25T10:46:31.739Z,770
2016-10-25T10:47:31.540Z,790
2016-10-25T10:48:31.707Z,795
2016-10-25T10:49:31.717Z,785
2016-10-25T10:50:46.443Z,835
2016-10-25T10:51:31.482Z,855
2016-10-25T10:52:31.490Z,845
2016-10-25T10:53:31.765Z,870
2016-10-25T10:54:31.428Z,905
2016-10-25T10:55:31.451Z,885
2016-10-25T10:56:31.432Z,865
2016-10-25T10:57:31.417Z,865
2016-10-25T10:58:31.396Z,860
2016-10-25T10:59:31.396Z,855
2016-10-25T11:00:31.383Z,855
2016-10-25T11:01:31.397Z,850
2016-10-25T11:02:31.345Z,860
2016-10-25T11:03:31.320Z,850
2016-10-25T11:04:31.319Z,845
2016-10-25T11:05:31.306Z,865
2016-10-25T11:06:31.320Z,865
2016-10-25T11:07:31.318Z,810
2016-10-25T11:08:31.295Z,800
2016-10-25T11:09:31.304Z,760
2016-10-25T11:10:31.255Z,745
2016-10-25T11:11:31.277Z,705
2016-10-25T11:12:31.239Z,665
2016-10-25T11:13:31.234Z,650
2016-10-25T11:14:31.237Z,610
2016-10-25T11:15:31.170Z,585
2016-10-25T11:16:31.218Z,580
2016-10-25T11:17:31.205Z,560
2016-10-25T11:18:31.154Z,545
2016-10-25T11:19:31.347Z,570
2016-10-25T11:20:31.368Z,605
2016-10-25T11:21:31.143Z,600
2016-10-25T11:22:31.102Z,575
2016-10-25T11:23:31.095Z,595
2016-10-25T11:24:31.114Z,655
2016-10-25T11:25:31.101Z,640
2016-10-25T11:26:31.076Z,565
2016-10-25T11:27:31.039Z,490
2016-10-25T11:28:31.049Z,450
2016-10-25T11:29:31.036Z,445
2016-10-25T11:30:31.038Z,430
2016-10-25T11:31:31.036Z,430
2016-10-25T11:32:30.990Z,415
2016-10-25T11:33:31.336Z,420
2016-10-25T11:34:30.982Z,420
2016-10-25T11:35:30.946Z,405
2016-10-25T11:36:30.942Z,400
2016-10-25T11:37:30.905Z,410
2016-10-25T11:38:30.946Z,420
2016-10-25T11:39:30.939Z,425
2016-10-25T11:40:30.891Z,450
2016-10-25T11:41:30.881Z,465
2016-10-25T11:42:30.874Z,465
2016-10-25T11:43:30.854Z,445
2016-10-25T11:44:30.844Z,420
2016-10-25T11:45:30.851Z,395
2016-10-25T11:46:30.826Z,395
2016-10-25T11:47:30.813Z,410
2016-10-25T11:48:30.799Z,425
2016-10-25T11:49:30.993Z,410
2016-10-25T11:50:30.786Z,420
2016-10-25T11:51:30.961Z,395
2016-10-25T11:52:30.747Z,350
2016-10-25T11:53:30.741Z,335
2016-10-25T11:54:30.740Z,305
2016-10-25T11:55:30.733Z,330
2016-10-25T11:56:30.718Z,310
2016-10-25T11:57:30.711Z,320
2016-10-25T11:58:30.687Z,345
2016-10-25T11:59:30.661Z,385
2016-10-25T12:00:30.671Z,385
2016-10-25T12:01:30.674Z,375
2016-10-25T12:02:30.641Z,340
2016-10-25T12:03:30.602Z,380
2016-10-25T12:04:30.600Z,365
2016-10-25T12:05:30.584Z,340
2016-10-25T12:06:30.603Z,335
2016-10-25T12:07:30.564Z,300
2016-10-25T12:08:30.572Z,270
2016-10-25T12:09:30.530Z,295
2016-10-25T12:10:30.548Z,280
2016-10-25T12:11:30.506Z,205
2016-10-25T12:12:30.597Z,200
2016-10-25T12:13:30.472Z,200
2016-10-25T12:14:30.501Z,195
2016-10-25T12:15:30.504Z,165
2016-10-25T12:16:30.458Z,190
2016-10-25T12:17:30.417Z,180
2016-10-25T12:18:30.453Z,175
2016-10-25T12:19:30.389Z,180
2016-10-25T12:20:30.420Z,190
2016-10-25T12:21:30.406Z,195
2016-10-25T12:22:30.395Z,225
2016-10-25T12:23:30.391Z,250
2016-10-25T12:24:30.367Z,275
2016-10-25T12:25:30.834Z,245
2016-10-25T12:26:30.350Z,275
2016-10-25T12:27:30.315Z,285
2016-10-25T12:28:30.308Z,265
2016-10-25T12:29:30.292Z,285
2016-10-25T12:30:30.298Z,265
2016-10-25T12:31:30.298Z,280
2016-10-25T12:32:30.314Z,245
2016-10-25T12:33:30.217Z,205
2016-10-25T12:34:30.229Z,200
2016-10-25T12:35:30.206Z,240
2016-10-25T12:36:30.243Z,280
2016-10-25T12:37:30.202Z,295
2016-10-25T12:38:30.160Z,320
2016-10-25T12:39:30.145Z,315
2016-10-25T12:40:30.171Z,280
2016-10-25T12:41:30.179Z,275
2016-10-25T12:42:30.143Z,265
2016-10-25T12:43:30.326Z,225
2016-10-25T12:44:30.129Z,220
2016-10-25T12:45:30.423Z,225
2016-10-25T12:46:30.088Z,235
2016-10-25T12:47:30.061Z,270
2016-10-25T12:48:30.205Z,310
2016-10-25T12:49:30.048Z,310
2016-10-25T12:50:30.020Z,310
2016-10-25T12:51:30.011Z,325
2016-10-25T12:52:29.984Z,320
2016-10-25T12:53:29.998Z,330
2016-10-25T12:54:30.256Z,290
2016-10-25T12:55:29.963Z,270
2016-10-25T12:56:29.960Z,285
2016-10-25T12:57:29.938Z,270
2016-10-25T12:58:29.923Z,260
2016-10-25T12:59:29.918Z,265
2016-10-25T13:00:29.915Z,275
2016-10-25T13:01:29.922Z,305
2016-10-25T13:02:29.901Z,350
2016-10-25T13:03:29.894Z,385
2016-10-25T13:04:29.845Z,390
2016-10-25T13:05:29.830Z,410
2016-10-25T13:06:29.811Z,435
2016-10-25T13:07:29.792Z,415
2016-10-25T13:08:29.813Z,380
2016-10-25T13:09:29.787Z,345
2016-10-25T13:10:29.792Z,350
2016-10-25T13:11:30.054Z,380
2016-10-25T13:12:29.742Z,360
2016-10-25T13:13:29.745Z,355
2016-10-25T13:14:29.707Z,365
2016-10-25T13:15:29.711Z,345
2016-10-25T13:16:30.000Z,305
2016-10-25T13:17:29.671Z,335
2016-10-25T13:18:29.689Z,375
2016-10-25T13:19:29.650Z,390
2016-10-25T13:20:29.656Z,380
2016-10-25T13:21:29.655Z,380
2016-10-25T13:22:29.594Z,380
2016-10-25T13:23:29.600Z,395
2016-10-25T13:24:29.615Z,355
2016-10-25T13:25:29.572Z,320
2016-10-25T13:26:29.586Z,320
2016-10-25T13:27:29.565Z,290
2016-10-25T13:28:29.575Z,350
2016-10-25T13:29:29.572Z,310
2016-10-25T13:30:29.495Z,305
2016-10-25T13:31:29.481Z,360
2016-10-25T13:32:29.464Z,320
2016-10-25T13:33:29.468Z,275
2016-10-25T13:34:29.514Z,285
2016-10-25T13:35:29.726Z,300
2016-10-25T13:36:29.429Z,295
2016-10-25T13:37:29.423Z,340
2016-10-25T13:38:29.418Z,335
2016-10-25T13:39:29.398Z,310
2016-10-25T13:40:29.375Z,290
2016-10-25T13:41:29.337Z,275
2016-10-25T13:42:29.382Z,230
2016-10-25T13:43:29.331Z,225
2016-10-25T13:44:29.342Z,230
2016-10-25T13:45:29.312Z,215
2016-10-25T13:46:29.308Z,200
2016-10-25T13:47:29.280Z,180
2016-10-25T13:48:29.299Z,175
2016-10-25T13:49:29.240Z,180
2016-10-25T13:50:29.270Z,220
2016-10-25T13:51:29.251Z,235
2016-10-25T13:52:29.230Z,250
2016-10-25T13:53:29.480Z,225
2016-10-25T13:54:29.183Z,220
2016-10-25T13:55:29.457Z,225
2016-10-25T13:56:29.169Z,220
2016-10-25T13:57:29.118Z,230
2016-10-25T13:58:29.139Z,225
2016-10-25T13:59:29.121Z,215
2016-10-25T14:00:29.092Z,210
2016-10-25T14:01:29.107Z,210
2016-10-25T14:02:29.075Z,210
2016-10-25T14:03:29.044Z,215
2016-10-25T14:04:29.091Z,195
2016-10-25T14:05:29.024Z,200
2016-10-25T14:06:29.013Z,190
2016-10-25T14:07:29.018Z,185
2016-10-25T14:08:28.989Z,180
2016-10-25T14:09:28.965Z,165
2016-10-25T14:10:28.998Z,155
2016-10-25T14:11:29.290Z,135